sensor_id;sensor_type;location;lat;lon;timestamp;P1;durP1;ratioP1;P2;durP2;ratioP2
3811;SDS011;1921;49.368;11.068;2023-03-16T00:00:47;41.63;;;38.93;;
3811;SDS011;1921;49.368;11.068;2023-03-16T00:03:13;50.03;;;41.50;;
3811;SDS011;1921;49.368;11.068;2023-03-16T00:05:43;42.33;;;39.72;;
3811;SDS011;1921;49.368;11.068;2023-03-16T00:08:14;45.43;;;42.27;;
3811;SDS011;1921;49.368;11.068;2023-03-16T00:10:41;42.97;;;40.27;;
3811;SDS011;1921;49.368;11.068;2023-03-16T00:13:12;44.20;;;40.90;;
3811;SDS011;1921;49.368;11.068;2023-03-16T00:15:52;44.03;;;40.57;;
3811;SDS011;1921;49.368;11.068;2023-03-16T00:18:29;44.20;;;40.90;;
3811;SDS011;1921;49.368;11.068;2023-03-16T00:20:59;44.00;;;41.10;;
3811;SDS011;1921;49.368;11.068;2023-03-16T00:23:26;42.10;;;39.40;;
3811;SDS011;1921;49.368;11.068;2023-03-16T00:25:53;44.13;;;40.77;;
3811;SDS011;1921;49.368;11.068;2023-03-16T00:28:24;43.80;;;40.90;;
3811;SDS011;1921;49.368;11.068;2023-03-16T00:30:51;42.70;;;40.07;;
3811;SDS011;1921;49.368;11.068;2023-03-16T00:33:22;44.03;;;40.50;;
3811;SDS011;1921;49.368;11.068;2023-03-16T00:35:49;43.20;;;40.10;;
3811;SDS011;1921;49.368;11.068;2023-03-16T00:38:16;44.03;;;41.00;;
3811;SDS011;1921;49.368;11.068;2023-03-16T00:40:42;42.83;;;39.80;;
3811;SDS011;1921;49.368;11.068;2023-03-16T00:43:09;45.22;;;41.45;;
3811;SDS011;1921;49.368;11.068;2023-03-16T00:45:35;41.37;;;38.77;;
3811;SDS011;1921;49.368;11.068;2023-03-16T00:48:01;44.97;;;41.70;;
3811;SDS011;1921;49.368;11.068;2023-03-16T00:50:27;45.57;;;41.60;;
3811;SDS011;1921;49.368;11.068;2023-03-16T00:52:53;43.53;;;40.42;;
3811;SDS011;1921;49.368;11.068;2023-03-16T00:55:19;42.90;;;39.87;;
3811;SDS011;1921;49.368;11.068;2023-03-16T00:57:45;46.33;;;41.80;;
3811;SDS011;1921;49.368;11.068;2023-03-16T01:00:11;43.53;;;40.57;;
3811;SDS011;1921;49.368;11.068;2023-03-16T01:02:41;42.85;;;39.90;;
3811;SDS011;1921;49.368;11.068;2023-03-16T01:05:11;44.10;;;40.63;;
3811;SDS011;1921;49.368;11.068;2023-03-16T01:07:38;43.55;;;40.45;;
3811;SDS011;1921;49.368;11.068;2023-03-16T01:10:05;43.03;;;40.08;;
3811;SDS011;1921;49.368;11.068;2023-03-16T01:12:34;43.50;;;40.40;;
3811;SDS011;1921;49.368;11.068;2023-03-16T01:15:00;43.20;;;40.40;;
3811;SDS011;1921;49.368;11.068;2023-03-16T01:17:26;41.80;;;38.92;;
3811;SDS011;1921;49.368;11.068;2023-03-16T01:19:51;42.27;;;39.47;;
3811;SDS011;1921;49.368;11.068;2023-03-16T01:22:17;43.60;;;40.60;;
3811;SDS011;1921;49.368;11.068;2023-03-16T01:24:44;43.30;;;40.53;;
3811;SDS011;1921;49.368;11.068;2023-03-16T01:27:10;40.03;;;37.43;;
3811;SDS011;1921;49.368;11.068;2023-03-16T01:29:38;43.90;;;39.97;;
3811;SDS011;1921;49.368;11.068;2023-03-16T01:32:04;43.03;;;39.90;;
3811;SDS011;1921;49.368;11.068;2023-03-16T01:34:31;43.57;;;40.33;;
3811;SDS011;1921;49.368;11.068;2023-03-16T01:36:58;42.55;;;39.75;;
3811;SDS011;1921;49.368;11.068;2023-03-16T01:39:25;41.80;;;38.97;;
3811;SDS011;1921;49.368;11.068;2023-03-16T01:41:51;42.88;;;39.97;;
3811;SDS011;1921;49.368;11.068;2023-03-16T01:44:21;42.90;;;39.37;;
3811;SDS011;1921;49.368;11.068;2023-03-16T01:46:54;44.05;;;40.65;;
3811;SDS011;1921;49.368;11.068;2023-03-16T01:54:43;42.35;;;39.40;;
3811;SDS011;1921;49.368;11.068;2023-03-16T01:57:42;43.83;;;40.53;;
3811;SDS011;1921;49.368;11.068;2023-03-16T02:00:11;43.05;;;40.35;;
3811;SDS011;1921;49.368;11.068;2023-03-16T02:02:55;42.20;;;39.25;;
3811;SDS011;1921;49.368;11.068;2023-03-16T02:05:35;42.17;;;39.50;;
3811;SDS011;1921;49.368;11.068;2023-03-16T02:08:07;41.22;;;38.72;;
3811;SDS011;1921;49.368;11.068;2023-03-16T02:10:36;42.30;;;39.58;;
3811;SDS011;1921;49.368;11.068;2023-03-16T02:13:04;42.35;;;39.25;;
3811;SDS011;1921;49.368;11.068;2023-03-16T02:15:30;43.67;;;40.60;;
3811;SDS011;1921;49.368;11.068;2023-03-16T02:17:56;40.42;;;38.00;;
3811;SDS011;1921;49.368;11.068;2023-03-16T02:23:08;41.83;;;38.92;;
3811;SDS011;1921;49.368;11.068;2023-03-16T02:31:41;40.35;;;37.85;;
3811;SDS011;1921;49.368;11.068;2023-03-16T02:34:09;42.25;;;39.42;;
3811;SDS011;1921;49.368;11.068;2023-03-16T02:36:38;43.65;;;40.45;;
3811;SDS011;1921;49.368;11.068;2023-03-16T02:39:07;43.55;;;40.42;;
3811;SDS011;1921;49.368;11.068;2023-03-16T02:41:33;41.23;;;38.07;;
3811;SDS011;1921;49.368;11.068;2023-03-16T02:46:44;41.58;;;38.97;;
3811;SDS011;1921;49.368;11.068;2023-03-16T02:52:03;43.28;;;40.13;;
3811;SDS011;1921;49.368;11.068;2023-03-16T02:54:30;41.38;;;38.67;;
3811;SDS011;1921;49.368;11.068;2023-03-16T02:56:56;40.00;;;37.70;;
3811;SDS011;1921;49.368;11.068;2023-03-16T02:59:21;43.30;;;40.20;;
3811;SDS011;1921;49.368;11.068;2023-03-16T03:01:47;42.07;;;39.20;;
3811;SDS011;1921;49.368;11.068;2023-03-16T03:04:13;42.80;;;39.80;;
3811;SDS011;1921;49.368;11.068;2023-03-16T03:06:39;44.30;;;41.00;;
3811;SDS011;1921;49.368;11.068;2023-03-16T03:09:05;41.50;;;38.78;;
3811;SDS011;1921;49.368;11.068;2023-03-16T03:11:31;41.63;;;38.83;;
3811;SDS011;1921;49.368;11.068;2023-03-16T03:13:57;41.13;;;38.83;;
3811;SDS011;1921;49.368;11.068;2023-03-16T03:16:23;40.17;;;37.70;;
3811;SDS011;1921;49.368;11.068;2023-03-16T03:18:49;40.43;;;37.93;;
3811;SDS011;1921;49.368;11.068;2023-03-16T03:21:16;41.42;;;38.72;;
3811;SDS011;1921;49.368;11.068;2023-03-16T03:23:43;41.63;;;39.03;;
3811;SDS011;1921;49.368;11.068;2023-03-16T03:26:10;44.47;;;41.08;;
3811;SDS011;1921;49.368;11.068;2023-03-16T03:28:39;40.95;;;37.90;;
3811;SDS011;1921;49.368;11.068;2023-03-16T03:31:05;40.67;;;38.28;;
3811;SDS011;1921;49.368;11.068;2023-03-16T03:33:37;41.22;;;38.63;;
3811;SDS011;1921;49.368;11.068;2023-03-16T03:36:03;41.13;;;38.20;;
3811;SDS011;1921;49.368;11.068;2023-03-16T03:38:29;42.42;;;38.90;;
3811;SDS011;1921;49.368;11.068;2023-03-16T03:40:55;40.70;;;37.40;;
3811;SDS011;1921;49.368;11.068;2023-03-16T03:43:23;41.53;;;38.85;;
3811;SDS011;1921;49.368;11.068;2023-03-16T03:45:53;42.47;;;39.40;;
3811;SDS011;1921;49.368;11.068;2023-03-16T03:48:24;41.90;;;38.90;;
3811;SDS011;1921;49.368;11.068;2023-03-16T03:50:51;41.05;;;38.47;;
3811;SDS011;1921;49.368;11.068;2023-03-16T03:53:19;39.88;;;37.28;;
3811;SDS011;1921;49.368;11.068;2023-03-16T03:55:44;38.57;;;36.50;;
3811;SDS011;1921;49.368;11.068;2023-03-16T03:58:11;42.50;;;39.40;;
3811;SDS011;1921;49.368;11.068;2023-03-16T04:00:37;44.40;;;40.40;;
3811;SDS011;1921;49.368;11.068;2023-03-16T04:03:03;41.63;;;38.83;;
3811;SDS011;1921;49.368;11.068;2023-03-16T04:05:30;40.80;;;37.78;;
3811;SDS011;1921;49.368;11.068;2023-03-16T04:07:56;38.30;;;36.30;;
3811;SDS011;1921;49.368;11.068;2023-03-16T04:10:23;43.20;;;39.50;;
3811;SDS011;1921;49.368;11.068;2023-03-16T04:12:50;39.90;;;37.70;;
3811;SDS011;1921;49.368;11.068;2023-03-16T04:15:15;40.67;;;38.00;;
3811;SDS011;1921;49.368;11.068;2023-03-16T04:17:41;40.43;;;38.20;;
3811;SDS011;1921;49.368;11.068;2023-03-16T04:20:07;40.57;;;38.13;;
3811;SDS011;1921;49.368;11.068;2023-03-16T04:22:38;40.80;;;38.28;;
3811;SDS011;1921;49.368;11.068;2023-03-16T04:25:07;40.65;;;37.85;;
3811;SDS011;1921;49.368;11.068;2023-03-16T04:27:35;42.58;;;39.20;;
3811;SDS011;1921;49.368;11.068;2023-03-16T04:30:04;41.43;;;38.93;;
3811;SDS011;1921;49.368;11.068;2023-03-16T04:32:36;39.40;;;37.10;;
3811;SDS011;1921;49.368;11.068;2023-03-16T04:35:02;40.47;;;37.97;;
3811;SDS011;1921;49.368;11.068;2023-03-16T04:37:29;39.20;;;37.08;;
3811;SDS011;1921;49.368;11.068;2023-03-16T04:39:54;40.97;;;38.37;;
3811;SDS011;1921;49.368;11.068;2023-03-16T04:42:20;43.10;;;40.07;;
3811;SDS011;1921;49.368;11.068;2023-03-16T04:44:46;40.50;;;37.97;;
3811;SDS011;1921;49.368;11.068;2023-03-16T04:47:13;42.73;;;39.73;;
3811;SDS011;1921;49.368;11.068;2023-03-16T04:49:41;42.55;;;39.45;;
3811;SDS011;1921;49.368;11.068;2023-03-16T04:52:07;43.33;;;40.42;;
3811;SDS011;1921;49.368;11.068;2023-03-16T04:54:33;42.38;;;39.40;;
3811;SDS011;1921;49.368;11.068;2023-03-16T04:56:59;41.63;;;38.55;;
3811;SDS011;1921;49.368;11.068;2023-03-16T04:59:28;43.55;;;40.50;;
3811;SDS011;1921;49.368;11.068;2023-03-16T05:01:54;41.17;;;38.10;;
3811;SDS011;1921;49.368;11.068;2023-03-16T05:04:20;42.37;;;39.50;;
3811;SDS011;1921;49.368;11.068;2023-03-16T05:06:47;42.65;;;39.83;;
3811;SDS011;1921;49.368;11.068;2023-03-16T05:09:12;42.80;;;39.87;;
3811;SDS011;1921;49.368;11.068;2023-03-16T05:11:38;43.03;;;39.90;;
3811;SDS011;1921;49.368;11.068;2023-03-16T05:14:04;41.17;;;38.45;;
3811;SDS011;1921;49.368;11.068;2023-03-16T05:16:30;39.93;;;37.70;;
3811;SDS011;1921;49.368;11.068;2023-03-16T05:18:57;42.10;;;39.13;;
3811;SDS011;1921;49.368;11.068;2023-03-16T05:21:23;40.80;;;38.30;;
3811;SDS011;1921;49.368;11.068;2023-03-16T05:23:49;42.60;;;39.80;;
3811;SDS011;1921;49.368;11.068;2023-03-16T05:26:15;41.78;;;38.95;;
3811;SDS011;1921;49.368;11.068;2023-03-16T05:28:42;40.80;;;38.50;;
3811;SDS011;1921;49.368;11.068;2023-03-16T05:31:09;42.55;;;39.50;;
3811;SDS011;1921;49.368;11.068;2023-03-16T05:33:35;40.83;;;38.15;;
3811;SDS011;1921;49.368;11.068;2023-03-16T05:36:01;41.77;;;38.87;;
3811;SDS011;1921;49.368;11.068;2023-03-16T05:38:28;41.65;;;38.97;;
3811;SDS011;1921;49.368;11.068;2023-03-16T05:40:55;41.63;;;39.08;;
3811;SDS011;1921;49.368;11.068;2023-03-16T05:43:25;40.35;;;37.80;;
3811;SDS011;1921;49.368;11.068;2023-03-16T05:45:53;39.88;;;37.75;;
3811;SDS011;1921;49.368;11.068;2023-03-16T05:48:19;40.75;;;38.40;;
3811;SDS011;1921;49.368;11.068;2023-03-16T05:50:46;43.53;;;39.72;;
3811;SDS011;1921;49.368;11.068;2023-03-16T05:53:12;45.05;;;41.60;;
3811;SDS011;1921;49.368;11.068;2023-03-16T05:55:39;41.30;;;38.80;;
3811;SDS011;1921;49.368;11.068;2023-03-16T05:58:05;42.10;;;39.40;;
3811;SDS011;1921;49.368;11.068;2023-03-16T06:00:31;43.97;;;40.27;;
3811;SDS011;1921;49.368;11.068;2023-03-16T06:02:56;44.10;;;41.20;;
3811;SDS011;1921;49.368;11.068;2023-03-16T06:05:23;42.55;;;39.65;;
3811;SDS011;1921;49.368;11.068;2023-03-16T06:07:50;46.20;;;42.50;;
3811;SDS011;1921;49.368;11.068;2023-03-16T06:10:16;43.40;;;40.10;;
3811;SDS011;1921;49.368;11.068;2023-03-16T06:12:43;44.43;;;40.93;;
3811;SDS011;1921;49.368;11.068;2023-03-16T06:15:09;44.70;;;41.50;;
3811;SDS011;1921;49.368;11.068;2023-03-16T06:17:37;45.27;;;42.00;;
3811;SDS011;1921;49.368;11.068;2023-03-16T06:20:05;43.90;;;40.90;;
3811;SDS011;1921;49.368;11.068;2023-03-16T06:22:38;43.90;;;40.60;;
3811;SDS011;1921;49.368;11.068;2023-03-16T06:25:06;41.47;;;38.97;;
3811;SDS011;1921;49.368;11.068;2023-03-16T06:27:34;42.87;;;40.17;;
3811;SDS011;1921;49.368;11.068;2023-03-16T06:30:00;45.67;;;42.47;;
3811;SDS011;1921;49.368;11.068;2023-03-16T06:32:26;44.37;;;41.10;;
3811;SDS011;1921;49.368;11.068;2023-03-16T06:34:52;47.50;;;42.80;;
3811;SDS011;1921;49.368;11.068;2023-03-16T06:37:18;42.17;;;39.30;;
3811;SDS011;1921;49.368;11.068;2023-03-16T06:39:43;48.00;;;43.90;;
3811;SDS011;1921;49.368;11.068;2023-03-16T06:42:10;47.43;;;43.10;;
3811;SDS011;1921;49.368;11.068;2023-03-16T06:44:36;46.00;;;42.13;;
3811;SDS011;1921;49.368;11.068;2023-03-16T06:47:02;48.50;;;44.20;;
3811;SDS011;1921;49.368;11.068;2023-03-16T06:49:28;45.57;;;41.73;;
3811;SDS011;1921;49.368;11.068;2023-03-16T06:51:54;47.63;;;43.37;;
3811;SDS011;1921;49.368;11.068;2023-03-16T06:54:22;45.80;;;42.23;;
3811;SDS011;1921;49.368;11.068;2023-03-16T06:56:48;45.73;;;42.23;;
3811;SDS011;1921;49.368;11.068;2023-03-16T06:59:14;45.77;;;42.30;;
3811;SDS011;1921;49.368;11.068;2023-03-16T07:01:39;48.80;;;44.50;;
3811;SDS011;1921;49.368;11.068;2023-03-16T07:04:06;46.53;;;43.00;;
3811;SDS011;1921;49.368;11.068;2023-03-16T07:06:32;58.77;;;45.37;;
3811;SDS011;1921;49.368;11.068;2023-03-16T07:08:58;73.27;;;44.00;;
3811;SDS011;1921;49.368;11.068;2023-03-16T07:11:25;70.40;;;46.10;;
3811;SDS011;1921;49.368;11.068;2023-03-16T07:13:51;229.97;;;54.47;;
3811;SDS011;1921;49.368;11.068;2023-03-16T07:16:17;47.50;;;42.70;;
3811;SDS011;1921;49.368;11.068;2023-03-16T07:18:42;56.43;;;44.43;;
3811;SDS011;1921;49.368;11.068;2023-03-16T07:21:09;46.20;;;41.83;;
3811;SDS011;1921;49.368;11.068;2023-03-16T07:23:35;71.27;;;43.83;;
3811;SDS011;1921;49.368;11.068;2023-03-16T07:26:01;363.93;;;61.87;;
3811;SDS011;1921;49.368;11.068;2023-03-16T07:28:27;44.37;;;41.30;;
3811;SDS011;1921;49.368;11.068;2023-03-16T07:30:53;388.57;;;65.93;;
3811;SDS011;1921;49.368;11.068;2023-03-16T07:33:19;85.03;;;45.73;;
3811;SDS011;1921;49.368;11.068;2023-03-16T07:35:45;196.30;;;61.13;;
3811;SDS011;1921;49.368;11.068;2023-03-16T07:38:11;48.43;;;43.83;;
3811;SDS011;1921;49.368;11.068;2023-03-16T07:40:38;49.40;;;44.80;;
3811;SDS011;1921;49.368;11.068;2023-03-16T07:43:04;57.37;;;45.73;;
3811;SDS011;1921;49.368;11.068;2023-03-16T07:45:30;48.87;;;43.90;;
3811;SDS011;1921;49.368;11.068;2023-03-16T07:47:56;46.53;;;42.73;;
3811;SDS011;1921;49.368;11.068;2023-03-16T07:50:21;50.03;;;45.20;;
3811;SDS011;1921;49.368;11.068;2023-03-16T07:52:47;49.17;;;44.87;;
3811;SDS011;1921;49.368;11.068;2023-03-16T07:55:13;47.30;;;43.40;;
3811;SDS011;1921;49.368;11.068;2023-03-16T07:57:39;46.60;;;42.80;;
3811;SDS011;1921;49.368;11.068;2023-03-16T08:00:06;49.43;;;45.23;;
3811;SDS011;1921;49.368;11.068;2023-03-16T08:02:34;48.80;;;44.40;;
3811;SDS011;1921;49.368;11.068;2023-03-16T08:05:00;47.57;;;43.67;;
3811;SDS011;1921;49.368;11.068;2023-03-16T08:07:25;48.60;;;44.50;;
3811;SDS011;1921;49.368;11.068;2023-03-16T08:09:51;50.47;;;45.27;;
3811;SDS011;1921;49.368;11.068;2023-03-16T08:12:17;49.43;;;44.73;;
3811;SDS011;1921;49.368;11.068;2023-03-16T08:14:43;47.93;;;43.70;;
3811;SDS011;1921;49.368;11.068;2023-03-16T08:17:10;46.93;;;43.13;;
3811;SDS011;1921;49.368;11.068;2023-03-16T08:19:36;45.50;;;41.90;;
3811;SDS011;1921;49.368;11.068;2023-03-16T08:22:03;47.57;;;43.67;;
3811;SDS011;1921;49.368;11.068;2023-03-16T08:24:30;45.87;;;42.10;;
3811;SDS011;1921;49.368;11.068;2023-03-16T08:26:57;46.10;;;42.40;;
3811;SDS011;1921;49.368;11.068;2023-03-16T08:29:24;47.53;;;43.67;;
3811;SDS011;1921;49.368;11.068;2023-03-16T08:31:53;46.73;;;42.90;;
3811;SDS011;1921;49.368;11.068;2023-03-16T08:34:20;45.80;;;42.13;;
3811;SDS011;1921;49.368;11.068;2023-03-16T08:36:48;46.73;;;42.63;;
3811;SDS011;1921;49.368;11.068;2023-03-16T08:39:13;47.23;;;43.13;;
3811;SDS011;1921;49.368;11.068;2023-03-16T08:41:40;49.13;;;44.57;;
3811;SDS011;1921;49.368;11.068;2023-03-16T08:44:07;47.47;;;43.27;;
3811;SDS011;1921;49.368;11.068;2023-03-16T08:46:34;48.17;;;43.83;;
3811;SDS011;1921;49.368;11.068;2023-03-16T08:49:00;47.70;;;43.50;;
3811;SDS011;1921;49.368;11.068;2023-03-16T08:51:27;47.77;;;43.67;;
3811;SDS011;1921;49.368;11.068;2023-03-16T08:53:53;47.57;;;43.37;;
3811;SDS011;1921;49.368;11.068;2023-03-16T08:56:19;47.40;;;43.23;;
3811;SDS011;1921;49.368;11.068;2023-03-16T08:58:45;47.87;;;43.57;;
3811;SDS011;1921;49.368;11.068;2023-03-16T09:01:12;48.17;;;43.87;;
3811;SDS011;1921;49.368;11.068;2023-03-16T09:03:39;48.60;;;44.10;;
3811;SDS011;1921;49.368;11.068;2023-03-16T09:06:10;47.50;;;43.30;;
3811;SDS011;1921;49.368;11.068;2023-03-16T09:08:38;48.50;;;44.00;;
3811;SDS011;1921;49.368;11.068;2023-03-16T09:11:06;47.70;;;43.40;;
3811;SDS011;1921;49.368;11.068;2023-03-16T09:13:35;48.67;;;44.00;;
3811;SDS011;1921;49.368;11.068;2023-03-16T09:16:02;48.70;;;44.20;;
3811;SDS011;1921;49.368;11.068;2023-03-16T09:18:29;49.00;;;44.30;;
3811;SDS011;1921;49.368;11.068;2023-03-16T09:21:00;48.77;;;44.17;;
3811;SDS011;1921;49.368;11.068;2023-03-16T09:23:29;48.87;;;44.30;;
3811;SDS011;1921;49.368;11.068;2023-03-16T09:25:58;47.97;;;43.57;;
3811;SDS011;1921;49.368;11.068;2023-03-16T09:28:27;48.77;;;44.33;;
3811;SDS011;1921;49.368;11.068;2023-03-16T09:30:54;47.93;;;43.60;;
3811;SDS011;1921;49.368;11.068;2023-03-16T09:33:25;48.50;;;44.03;;
3811;SDS011;1921;49.368;11.068;2023-03-16T09:35:56;48.00;;;43.60;;
3811;SDS011;1921;49.368;11.068;2023-03-16T09:38:22;47.97;;;43.57;;
3811;SDS011;1921;49.368;11.068;2023-03-16T09:40:54;48.27;;;43.87;;
3811;SDS011;1921;49.368;11.068;2023-03-16T09:49:17;48.10;;;43.63;;
3811;SDS011;1921;49.368;11.068;2023-03-16T09:51:57;47.97;;;43.60;;
3811;SDS011;1921;49.368;11.068;2023-03-16T09:55:15;48.10;;;43.80;;
3811;SDS011;1921;49.368;11.068;2023-03-16T09:57:56;48.20;;;43.80;;
3811;SDS011;1921;49.368;11.068;2023-03-16T10:00:25;48.37;;;43.87;;
3811;SDS011;1921;49.368;11.068;2023-03-16T10:06:08;48.80;;;43.60;;
3811;SDS011;1921;49.368;11.068;2023-03-16T10:08:55;49.60;;;44.93;;
3811;SDS011;1921;49.368;11.068;2023-03-16T10:11:54;48.67;;;44.17;;
3811;SDS011;1921;49.368;11.068;2023-03-16T10:14:24;47.90;;;43.50;;
3811;SDS011;1921;49.368;11.068;2023-03-16T10:19:46;49.20;;;44.60;;
3811;SDS011;1921;49.368;11.068;2023-03-16T10:22:18;47.73;;;43.43;;
3811;SDS011;1921;49.368;11.068;2023-03-16T10:24:51;48.50;;;44.00;;
3811;SDS011;1921;49.368;11.068;2023-03-16T10:27:34;48.50;;;44.00;;
3811;SDS011;1921;49.368;11.068;2023-03-16T10:30:05;48.77;;;43.90;;
3811;SDS011;1921;49.368;11.068;2023-03-16T10:32:42;48.40;;;43.90;;
3811;SDS011;1921;49.368;11.068;2023-03-16T10:35:19;48.30;;;43.80;;
3811;SDS011;1921;49.368;11.068;2023-03-16T10:37:49;48.40;;;43.93;;
3811;SDS011;1921;49.368;11.068;2023-03-16T10:40:16;49.27;;;44.37;;
3811;SDS011;1921;49.368;11.068;2023-03-16T10:42:44;48.80;;;44.17;;
3811;SDS011;1921;49.368;11.068;2023-03-16T10:45:30;48.70;;;44.10;;
3811;SDS011;1921;49.368;11.068;2023-03-16T10:48:11;49.50;;;44.80;;
3811;SDS011;1921;49.368;11.068;2023-03-16T10:50:47;48.70;;;44.20;;
3811;SDS011;1921;49.368;11.068;2023-03-16T10:53:28;49.47;;;44.77;;
3811;SDS011;1921;49.368;11.068;2023-03-16T10:55:56;49.13;;;44.53;;
3811;SDS011;1921;49.368;11.068;2023-03-16T10:58:31;50.13;;;45.23;;
3811;SDS011;1921;49.368;11.068;2023-03-16T11:00:59;49.00;;;44.30;;
3811;SDS011;1921;49.368;11.068;2023-03-16T11:06:04;49.07;;;44.37;;
3811;SDS011;1921;49.368;11.068;2023-03-16T11:08:41;49.17;;;44.37;;
3811;SDS011;1921;49.368;11.068;2023-03-16T11:14:11;50.03;;;45.23;;
3811;SDS011;1921;49.368;11.068;2023-03-16T11:16:43;49.73;;;44.97;;
3811;SDS011;1921;49.368;11.068;2023-03-16T11:19:40;50.50;;;45.47;;
3811;SDS011;1921;49.368;11.068;2023-03-16T11:22:23;50.53;;;45.53;;
3811;SDS011;1921;49.368;11.068;2023-03-16T11:30:50;50.20;;;45.30;;
3811;SDS011;1921;49.368;11.068;2023-03-16T11:33:51;49.53;;;44.77;;
3811;SDS011;1921;49.368;11.068;2023-03-16T11:44:30;50.20;;;45.37;;
3811;SDS011;1921;49.368;11.068;2023-03-16T11:47:29;50.43;;;45.47;;
3811;SDS011;1921;49.368;11.068;2023-03-16T11:50:16;50.40;;;45.30;;
3811;SDS011;1921;49.368;11.068;2023-03-16T11:53:23;50.50;;;45.50;;
3811;SDS011;1921;49.368;11.068;2023-03-16T11:58:59;50.17;;;45.33;;
3811;SDS011;1921;49.368;11.068;2023-03-16T12:19:23;50.23;;;45.07;;
3811;SDS011;1921;49.368;11.068;2023-03-16T12:22:02;49.27;;;44.67;;
3811;SDS011;1921;49.368;11.068;2023-03-16T12:24:56;50.10;;;45.27;;
3811;SDS011;1921;49.368;11.068;2023-03-16T12:27:24;49.93;;;45.17;;
3811;SDS011;1921;49.368;11.068;2023-03-16T12:33:21;49.70;;;44.80;;
3811;SDS011;1921;49.368;11.068;2023-03-16T12:36:35;50.50;;;45.47;;
3811;SDS011;1921;49.368;11.068;2023-03-16T12:45:03;50.07;;;45.27;;
3811;SDS011;1921;49.368;11.068;2023-03-16T12:50:15;50.90;;;45.70;;
3811;SDS011;1921;49.368;11.068;2023-03-16T12:52:44;50.30;;;45.30;;
3811;SDS011;1921;49.368;11.068;2023-03-16T12:55:23;51.20;;;46.10;;
3811;SDS011;1921;49.368;11.068;2023-03-16T12:58:04;50.40;;;45.50;;
3811;SDS011;1921;49.368;11.068;2023-03-16T13:00:33;50.67;;;45.57;;
3811;SDS011;1921;49.368;11.068;2023-03-16T13:03:13;57.63;;;45.63;;
3811;SDS011;1921;49.368;11.068;2023-03-16T13:05:45;50.30;;;45.40;;
3811;SDS011;1921;49.368;11.068;2023-03-16T13:08:18;50.23;;;45.33;;
3811;SDS011;1921;49.368;11.068;2023-03-16T13:11:04;50.70;;;45.70;;
3811;SDS011;1921;49.368;11.068;2023-03-16T13:13:47;50.10;;;45.00;;
3811;SDS011;1921;49.368;11.068;2023-03-16T13:16:26;50.50;;;45.40;;
3811;SDS011;1921;49.368;11.068;2023-03-16T13:18:56;50.20;;;45.27;;
3811;SDS011;1921;49.368;11.068;2023-03-16T13:27:02;50.60;;;45.50;;
3811;SDS011;1921;49.368;11.068;2023-03-16T13:29:59;50.40;;;45.40;;
3811;SDS011;1921;49.368;11.068;2023-03-16T13:32:39;50.07;;;45.20;;
3811;SDS011;1921;49.368;11.068;2023-03-16T13:35:06;50.60;;;45.50;;
3811;SDS011;1921;49.368;11.068;2023-03-16T13:37:37;50.50;;;45.40;;
3811;SDS011;1921;49.368;11.068;2023-03-16T13:40:16;50.70;;;45.60;;
3811;SDS011;1921;49.368;11.068;2023-03-16T13:42:49;50.90;;;45.80;;
3811;SDS011;1921;49.368;11.068;2023-03-16T13:45:19;51.10;;;45.90;;
3811;SDS011;1921;49.368;11.068;2023-03-16T13:47:56;50.80;;;45.70;;
3811;SDS011;1921;49.368;11.068;2023-03-16T13:50:24;51.90;;;46.53;;
3811;SDS011;1921;49.368;11.068;2023-03-16T13:52:57;50.50;;;45.50;;
3811;SDS011;1921;49.368;11.068;2023-03-16T13:55:29;51.00;;;45.90;;
3811;SDS011;1921;49.368;11.068;2023-03-16T13:57:58;50.80;;;45.77;;
3811;SDS011;1921;49.368;11.068;2023-03-16T14:00:34;50.67;;;45.57;;
3811;SDS011;1921;49.368;11.068;2023-03-16T14:03:08;51.03;;;45.87;;
3811;SDS011;1921;49.368;11.068;2023-03-16T14:05:41;51.43;;;46.23;;
3811;SDS011;1921;49.368;11.068;2023-03-16T14:10:46;50.90;;;45.80;;
3811;SDS011;1921;49.368;11.068;2023-03-16T14:16:05;50.53;;;45.53;;
3811;SDS011;1921;49.368;11.068;2023-03-16T14:18:40;50.50;;;45.50;;
3811;SDS011;1921;49.368;11.068;2023-03-16T14:23:51;51.40;;;46.30;;
3811;SDS011;1921;49.368;11.068;2023-03-16T14:26:22;51.10;;;46.00;;
3811;SDS011;1921;49.368;11.068;2023-03-16T14:28:56;51.70;;;46.50;;
3811;SDS011;1921;49.368;11.068;2023-03-16T14:31:36;51.57;;;46.37;;
3811;SDS011;1921;49.368;11.068;2023-03-16T14:34:06;51.53;;;46.33;;
3811;SDS011;1921;49.368;11.068;2023-03-16T14:37:05;50.80;;;45.70;;
3811;SDS011;1921;49.368;11.068;2023-03-16T14:39:43;51.03;;;45.93;;
3811;SDS011;1921;49.368;11.068;2023-03-16T14:42:26;51.13;;;45.93;;
3811;SDS011;1921;49.368;11.068;2023-03-16T14:44:55;51.43;;;46.23;;
3811;SDS011;1921;49.368;11.068;2023-03-16T14:47:38;51.50;;;46.20;;
3811;SDS011;1921;49.368;11.068;2023-03-16T14:50:11;51.90;;;46.60;;
3811;SDS011;1921;49.368;11.068;2023-03-16T14:52:46;51.20;;;45.90;;
3811;SDS011;1921;49.368;11.068;2023-03-16T14:55:13;51.30;;;46.10;;
3811;SDS011;1921;49.368;11.068;2023-03-16T14:57:41;51.63;;;46.33;;
3811;SDS011;1921;49.368;11.068;2023-03-16T15:00:10;51.40;;;46.13;;
3811;SDS011;1921;49.368;11.068;2023-03-16T15:02:39;51.90;;;46.60;;
3811;SDS011;1921;49.368;11.068;2023-03-16T15:05:22;51.50;;;46.30;;
3811;SDS011;1921;49.368;11.068;2023-03-16T15:07:55;51.20;;;46.00;;
3811;SDS011;1921;49.368;11.068;2023-03-16T15:10:25;51.70;;;46.40;;
3811;SDS011;1921;49.368;11.068;2023-03-16T15:12:57;51.40;;;46.10;;
3811;SDS011;1921;49.368;11.068;2023-03-16T15:15:37;51.17;;;46.03;;
3811;SDS011;1921;49.368;11.068;2023-03-16T15:18:06;51.20;;;45.80;;
3811;SDS011;1921;49.368;11.068;2023-03-16T15:20:33;50.77;;;45.67;;
3811;SDS011;1921;49.368;11.068;2023-03-16T15:23:05;51.47;;;46.17;;
3811;SDS011;1921;49.368;11.068;2023-03-16T15:25:35;50.90;;;45.80;;
3811;SDS011;1921;49.368;11.068;2023-03-16T15:28:23;49.93;;;45.10;;
3811;SDS011;1921;49.368;11.068;2023-03-16T15:30:52;50.20;;;45.30;;
3811;SDS011;1921;49.368;11.068;2023-03-16T15:33:20;50.93;;;45.83;;
3811;SDS011;1921;49.368;11.068;2023-03-16T15:35:47;50.40;;;45.50;;
3811;SDS011;1921;49.368;11.068;2023-03-16T15:38:23;50.80;;;45.77;;
3811;SDS011;1921;49.368;11.068;2023-03-16T15:40:52;49.87;;;45.10;;
3811;SDS011;1921;49.368;11.068;2023-03-16T15:43:19;50.87;;;45.87;;
3811;SDS011;1921;49.368;11.068;2023-03-16T15:45:48;51.13;;;46.03;;
3811;SDS011;1921;49.368;11.068;2023-03-16T15:48:18;49.83;;;45.03;;
3811;SDS011;1921;49.368;11.068;2023-03-16T15:53:42;51.20;;;46.20;;
3811;SDS011;1921;49.368;11.068;2023-03-16T15:56:14;51.10;;;46.00;;
3811;SDS011;1921;49.368;11.068;2023-03-16T15:58:45;51.03;;;46.03;;
3811;SDS011;1921;49.368;11.068;2023-03-16T16:01:19;51.03;;;45.97;;
3811;SDS011;1921;49.368;11.068;2023-03-16T16:03:51;50.93;;;45.90;;
3811;SDS011;1921;49.368;11.068;2023-03-16T16:06:18;51.20;;;46.20;;
3811;SDS011;1921;49.368;11.068;2023-03-16T16:08:44;50.80;;;45.80;;
3811;SDS011;1921;49.368;11.068;2023-03-16T16:11:18;51.27;;;46.13;;
3811;SDS011;1921;49.368;11.068;2023-03-16T16:13:49;50.83;;;45.87;;
3811;SDS011;1921;49.368;11.068;2023-03-16T16:16:16;50.80;;;45.80;;
3811;SDS011;1921;49.368;11.068;2023-03-16T16:18:44;50.13;;;45.30;;
3811;SDS011;1921;49.368;11.068;2023-03-16T16:21:20;51.60;;;46.50;;
3811;SDS011;1921;49.368;11.068;2023-03-16T16:23:49;51.27;;;45.90;;
3811;SDS011;1921;49.368;11.068;2023-03-16T16:26:29;50.87;;;45.53;;
3811;SDS011;1921;49.368;11.068;2023-03-16T16:29:12;50.50;;;45.70;;
3811;SDS011;1921;49.368;11.068;2023-03-16T16:31:41;50.63;;;45.87;;